createdAt,value
2019-03-15T00:25:14.253Z,8.00
2019-03-15T00:50:44.818Z,8.00
2019-03-15T00:56:44.551Z,7.90
2019-03-15T01:02:22.014Z,7.90
2019-03-15T01:04:54.804Z,7.90
2019-03-15T01:22:03.340Z,8.00
2019-03-15T01:24:35.586Z,8.00
2019-03-15T01:27:24.070Z,8.10
2019-03-15T01:30:04.374Z,8.10
2019-03-15T01:35:51.139Z,8.20
2019-03-15T01:38:21.369Z,8.30
2019-03-15T01:40:51.155Z,8.30
2019-03-15T01:43:23.347Z,8.30
2019-03-15T01:45:53.148Z,8.40
2019-03-15T01:48:22.489Z,8.40
2019-03-15T01:50:51.864Z,8.50
2019-03-15T01:53:23.735Z,8.50
2019-03-15T01:55:53.945Z,8.50
2019-03-15T01:58:23.037Z,8.50
2019-03-15T02:01:04.187Z,8.50
2019-03-15T02:04:01.795Z,8.50
2019-03-15T02:07:13.869Z,8.50
2019-03-15T02:09:44.614Z,8.50
2019-03-15T02:12:43.758Z,8.50
2019-03-15T02:19:11.135Z,8.50
2019-03-15T02:21:44.644Z,8.50
2019-03-15T02:24:14.251Z,8.50
2019-03-15T02:27:04.106Z,8.60
2019-03-15T02:29:42.215Z,8.60
2019-03-15T02:32:51.660Z,8.60
2019-03-15T02:35:24.910Z,8.60
2019-03-15T02:38:02.890Z,8.70
2019-03-15T02:40:35.194Z,8.70
2019-03-15T02:43:23.923Z,8.70
2019-03-15T02:46:54.634Z,8.70
2019-03-15T02:50:32.882Z,8.70
2019-03-15T02:52:13.629Z,8.70
2019-03-15T02:54:43.100Z,8.80
2019-03-15T02:57:12.610Z,8.80
2019-03-15T02:59:43.449Z,8.80
2019-03-15T03:02:16.093Z,8.80
2019-03-15T03:04:53.399Z,8.80
2019-03-15T03:07:25.306Z,8.80
2019-03-15T03:16:42.555Z,8.80
2019-03-15T03:19:15.213Z,8.80
2019-03-15T03:32:01.516Z,8.90
2019-03-15T03:42:13.586Z,9.00
2019-03-15T03:44:51.763Z,9.00
2019-03-15T03:47:35.447Z,9.00
2019-03-15T03:50:36.051Z,9.00
2019-03-15T03:52:41.492Z,8.90
2019-03-15T03:55:11.922Z,8.90
2019-03-15T03:58:12.928Z,8.90
2019-03-15T04:00:45.517Z,8.90
2019-03-15T04:03:20.810Z,8.90
2019-03-15T04:06:13.046Z,8.90
2019-03-15T04:08:42.427Z,8.80
2019-03-15T04:11:14.510Z,8.80
2019-03-15T04:14:11.074Z,8.80
2019-03-15T04:20:55.500Z,8.80
2019-03-15T04:23:25.154Z,8.70
2019-03-15T04:25:54.649Z,8.60
2019-03-15T04:32:31.055Z,8.60
2019-03-15T04:35:12.021Z,8.50
2019-03-15T04:37:45.694Z,8.50
2019-03-15T04:44:10.640Z,8.50
2019-03-15T04:46:42.367Z,8.40
2019-03-15T04:49:14.747Z,8.40
2019-03-15T04:52:34.280Z,8.30
2019-03-15T05:05:23.556Z,8.30
2019-03-15T05:07:55.817Z,8.30
2019-03-15T05:13:15.014Z,8.30
2019-03-15T05:15:45.490Z,8.30
2019-03-15T05:18:14.734Z,8.30
2019-03-15T05:20:43.748Z,8.20
2019-03-15T05:23:13.925Z,8.20
2019-03-15T05:25:43.241Z,8.20
2019-03-15T05:28:13.479Z,8.20
2019-03-15T05:30:42.581Z,8.20
2019-03-15T05:33:12.038Z,8.20
2019-03-15T05:35:43.203Z,8.20
2019-03-15T05:38:12.295Z,8.20
2019-03-15T05:40:44.327Z,8.20
2019-03-15T05:43:16.243Z,8.10
2019-03-15T05:45:45.870Z,8.10
2019-03-15T05:48:15.231Z,8.10
2019-03-15T05:51:34.880Z,8.10
2019-03-15T05:54:03.824Z,8.10
2019-03-15T05:56:41.906Z,8.10
2019-03-15T05:59:13.614Z,8.10
2019-03-15T06:02:11.660Z,8.10
2019-03-15T06:04:43.598Z,8.10
2019-03-15T06:08:27.567Z,8.10
2019-03-15T06:09:53.347Z,8.10
2019-03-15T06:12:20.572Z,8.10
2019-03-15T06:14:51.603Z,8.10
2019-03-15T06:17:43.552Z,8.10
2019-03-15T06:23:44.311Z,8.10
2019-03-15T06:26:14.264Z,8.10
2019-03-15T06:28:43.653Z,8.10
2019-03-15T06:31:13.887Z,8.10
2019-03-15T06:33:45.597Z,8.10
2019-03-15T06:36:14.763Z,8.10
2019-03-15T06:38:48.831Z,8.10
2019-03-15T06:41:17.969Z,8.10
2019-03-15T06:47:27.615Z,8.10
2019-03-15T06:49:39.082Z,8.20
2019-03-15T06:52:10.463Z,8.20
2019-03-15T06:54:39.545Z,8.20
2019-03-15T06:57:08.611Z,8.20
2019-03-15T06:59:37.870Z,8.30
2019-03-15T07:02:07.010Z,8.30
2019-03-15T07:04:36.094Z,8.40
2019-03-15T07:07:06.491Z,8.40
2019-03-15T07:09:38.485Z,8.50
2019-03-15T07:12:20.108Z,8.50
2019-03-15T07:14:51.426Z,8.50
2019-03-15T07:17:21.110Z,8.60
2019-03-15T07:19:50.295Z,8.60
2019-03-15T07:22:31.497Z,8.70
2019-03-15T07:25:00.812Z,8.70
2019-03-15T07:27:29.897Z,8.70
2019-03-15T07:30:00.076Z,8.80
2019-03-15T07:32:29.261Z,8.80
2019-03-15T07:34:58.410Z,8.90
2019-03-15T07:37:28.985Z,9.10
2019-03-15T07:40:27.148Z,9.30
2019-03-15T07:49:10.143Z,9.90
2019-03-15T07:51:49.628Z,10.00
2019-03-15T07:54:33.476Z,10.20
2019-03-15T07:56:54.836Z,10.30
2019-03-15T07:59:27.861Z,10.40
2019-03-15T08:01:58.727Z,10.50
2019-03-15T08:04:50.337Z,10.60
2019-03-15T08:07:36.400Z,10.70
2019-03-15T08:10:01.888Z,10.80
2019-03-15T08:12:31.226Z,10.90
2019-03-15T08:15:00.642Z,10.90
2019-03-15T08:17:38.074Z,11.00
2019-03-15T08:20:37.639Z,11.00
2019-03-15T08:23:08.849Z,11.10
2019-03-15T08:25:43.512Z,11.10
2019-03-15T08:28:19.513Z,11.20
2019-03-15T08:30:48.597Z,11.20
2019-03-15T08:33:20.414Z,11.20
2019-03-15T08:35:49.740Z,11.30
2019-03-15T08:38:19.060Z,11.40
2019-03-15T08:40:50.766Z,11.40
2019-03-15T08:43:19.909Z,11.50
2019-03-15T08:46:15.665Z,11.50
2019-03-15T08:48:50.463Z,11.60
2019-03-15T08:51:19.675Z,11.60
2019-03-15T08:53:50.629Z,11.60
2019-03-15T08:59:25.248Z,11.70
2019-03-15T09:02:00.589Z,11.70
2019-03-15T09:36:58.266Z,12.20
2019-03-15T09:39:29.972Z,12.30
2019-03-15T09:42:08.356Z,12.30
2019-03-15T09:44:38.676Z,12.40
2019-03-15T09:47:39.772Z,12.50
2019-03-15T09:50:33.253Z,12.60
2019-03-15T09:53:00.104Z,12.60
2019-03-15T10:17:10.856Z,12.40
2019-03-15T12:18:34.252Z,14.10
2019-03-15T12:21:00.381Z,14.10
2019-03-15T12:23:32.049Z,14.10
2019-03-15T14:02:21.843Z,13.10
2019-03-15T14:04:51.033Z,13.00
2019-03-15T14:07:20.293Z,12.90
2019-03-15T14:09:49.376Z,12.80
2019-03-15T14:12:18.449Z,12.70
2019-03-15T14:14:49.069Z,12.60
2019-03-15T14:17:18.805Z,12.50
2019-03-15T14:19:48.597Z,12.60
2019-03-15T14:22:17.852Z,12.50
2019-03-15T14:24:46.976Z,12.50
2019-03-15T14:27:17.206Z,12.40
2019-03-15T14:29:46.051Z,12.40
2019-03-15T14:32:15.902Z,12.40
2019-03-15T14:34:44.918Z,12.30
2019-03-15T14:37:20.340Z,12.30
2019-03-15T14:39:49.584Z,12.20
2019-03-15T14:42:18.822Z,12.20
2019-03-15T14:44:48.239Z,12.20
2019-03-15T14:47:18.417Z,12.10
2019-03-15T14:49:47.690Z,12.10
2019-03-15T14:52:16.903Z,12.10
2019-03-15T14:54:46.226Z,12.10
2019-03-15T14:57:15.558Z,12.10
2019-03-15T14:59:45.256Z,12.00
2019-03-15T15:02:20.330Z,12.00
2019-03-15T15:04:49.640Z,12.00
2019-03-15T15:07:19.056Z,12.00
2019-03-15T15:09:48.308Z,12.00
2019-03-15T15:12:17.530Z,12.00
2019-03-15T15:14:47.050Z,12.00
2019-03-15T15:17:16.254Z,11.90
2019-03-15T15:19:45.478Z,11.80
2019-03-15T15:22:14.762Z,11.80
2019-03-15T15:24:44.011Z,11.80
2019-03-15T15:27:13.275Z,11.80
2019-03-15T15:29:42.201Z,11.80
2019-03-15T15:32:14.117Z,11.70
2019-03-15T15:34:43.405Z,11.70
2019-03-15T15:37:15.071Z,11.70
2019-03-15T15:39:44.560Z,11.70
2019-03-15T15:42:13.789Z,11.70
2019-03-15T15:44:42.943Z,11.70
2019-03-15T15:47:12.025Z,11.70
2019-03-15T15:49:41.184Z,11.70
2019-03-15T15:52:10.378Z,11.70
2019-03-15T15:54:39.616Z,11.70
2019-03-15T15:57:08.452Z,11.70
2019-03-15T15:59:37.716Z,11.70
2019-03-15T16:02:08.618Z,11.80
2019-03-15T16:04:40.154Z,11.80
2019-03-15T16:07:10.130Z,11.80
2019-03-15T16:09:42.336Z,11.90
2019-03-15T16:12:13.096Z,11.80
2019-03-15T16:14:43.191Z,11.80
2019-03-15T16:17:14.744Z,11.80
2019-03-15T16:19:45.154Z,11.80
2019-03-15T16:22:14.392Z,11.80
2019-03-15T16:24:46.736Z,11.80
2019-03-15T16:27:19.817Z,11.80
2019-03-15T16:29:49.455Z,11.80
2019-03-15T16:32:18.913Z,11.70
2019-03-15T16:34:58.206Z,11.70
2019-03-15T16:37:28.482Z,11.70
2019-03-15T16:39:59.221Z,11.70
2019-03-15T16:42:45.027Z,11.80
2019-03-15T16:45:20.042Z,11.70
2019-03-15T16:47:51.387Z,11.60
2019-03-15T16:50:20.845Z,11.60
2019-03-15T16:52:50.326Z,11.50
2019-03-15T16:55:22.511Z,11.50
2019-03-15T16:57:51.656Z,11.50
2019-03-15T17:00:20.918Z,11.40
2019-03-15T17:02:50.406Z,11.40
2019-03-15T17:05:19.788Z,11.40
2019-03-15T17:07:49.130Z,11.30
2019-03-15T17:10:18.321Z,11.30
2019-03-15T17:12:47.850Z,11.40
2019-03-15T17:15:17.432Z,11.30
2019-03-15T17:21:07.843Z,11.30
2019-03-15T17:23:37.796Z,11.20
2019-03-15T17:26:07.699Z,11.20
2019-03-15T17:28:37.636Z,11.20
2019-03-15T17:31:10.198Z,11.20
2019-03-15T17:33:38.249Z,11.10
2019-03-15T17:36:07.547Z,11.10
2019-03-15T17:38:36.899Z,11.00
2019-03-15T17:41:06.588Z,11.00
2019-03-15T17:43:36.303Z,11.00
2019-03-15T17:46:08.719Z,10.90
2019-03-15T17:48:55.873Z,10.90
2019-03-15T17:51:25.059Z,10.80
2019-03-15T17:53:54.161Z,10.70
2019-03-15T17:56:23.369Z,10.60
2019-03-15T17:58:52.970Z,10.60
2019-03-15T18:01:22.124Z,10.50
2019-03-15T18:03:52.805Z,10.50
2019-03-15T18:06:22.282Z,10.40
2019-03-15T18:08:51.426Z,10.50
2019-03-15T18:11:21.102Z,10.40
2019-03-15T18:13:51.136Z,10.40
2019-03-15T18:16:20.482Z,10.40
2019-03-15T18:18:49.876Z,10.40
2019-03-15T18:21:21.022Z,10.30
2019-03-15T18:23:50.120Z,10.30
2019-03-15T18:26:19.422Z,10.20
2019-03-15T18:28:48.718Z,10.20
2019-03-15T18:31:21.227Z,10.10
2019-03-15T18:33:49.945Z,10.10
2019-03-15T18:36:19.707Z,10.10
2019-03-15T18:38:48.841Z,10.00
2019-03-15T18:41:18.303Z,10.10
2019-03-15T18:43:47.759Z,10.10
2019-03-15T18:46:19.737Z,10.10
2019-03-15T18:48:51.789Z,10.00
2019-03-15T18:51:20.979Z,10.10
2019-03-15T18:53:50.916Z,10.00
2019-03-15T18:56:20.611Z,10.00
2019-03-15T18:58:51.376Z,9.90
2019-03-15T19:01:23.850Z,9.90
2019-03-15T19:03:53.606Z,9.80
2019-03-15T19:06:23.059Z,9.80
2019-03-15T19:08:52.369Z,9.70
2019-03-15T19:11:21.705Z,9.70
2019-03-15T19:13:51.088Z,9.60
2019-03-15T19:16:20.587Z,9.60
2019-03-15T19:18:51.453Z,9.60
2019-03-15T19:21:23.357Z,9.50
2019-03-15T19:23:52.699Z,9.50
2019-03-15T19:26:23.326Z,9.60
2019-03-15T19:28:52.531Z,9.60
2019-03-15T19:31:21.715Z,9.60
2019-03-15T19:33:50.971Z,9.60
2019-03-15T19:36:20.276Z,9.60
2019-03-15T19:38:49.621Z,9.60
2019-03-15T19:41:20.416Z,9.60
2019-03-15T19:43:49.905Z,9.60
2019-03-15T19:46:19.261Z,9.60
2019-03-15T19:48:48.661Z,9.60
2019-03-15T19:51:17.941Z,9.60
2019-03-15T19:53:47.221Z,9.50
2019-03-15T19:56:16.914Z,9.50
2019-03-15T19:58:48.266Z,9.50
2019-03-15T20:01:17.597Z,9.50
2019-03-15T20:03:48.484Z,9.40
2019-03-15T20:06:17.757Z,9.40
2019-03-15T20:08:46.977Z,9.40
2019-03-15T20:11:17.370Z,9.40
2019-03-15T20:13:47.014Z,9.40
2019-03-15T20:16:16.420Z,9.50
2019-03-15T20:18:47.397Z,9.40
2019-03-15T20:21:16.843Z,9.40
2019-03-15T20:23:46.158Z,9.40
2019-03-15T20:26:18.624Z,9.30
2019-03-15T20:28:48.313Z,9.30
2019-03-15T20:31:21.504Z,9.20
2019-03-15T20:33:50.743Z,9.20
2019-03-15T20:36:19.920Z,9.50
2019-03-15T20:38:49.473Z,9.50
2019-03-15T20:41:21.137Z,9.30
2019-03-15T20:43:50.430Z,9.30
2019-03-15T20:46:20.062Z,9.20
2019-03-15T20:48:53.597Z,9.20
2019-03-15T20:51:25.940Z,9.20
2019-03-15T20:53:55.953Z,9.20
2019-03-15T20:56:27.589Z,9.20
2019-03-15T20:59:04.913Z,9.20
2019-03-15T21:01:34.543Z,9.10
2019-03-15T21:04:04.200Z,9.10
2019-03-15T21:06:33.575Z,9.10
2019-03-15T21:09:03.145Z,9.10
2019-03-15T21:11:35.781Z,9.10
2019-03-15T21:14:04.993Z,9.20
2019-03-15T21:16:34.091Z,9.20
2019-03-15T21:19:03.500Z,9.20
2019-03-15T21:21:32.709Z,9.20
2019-03-15T21:24:01.891Z,9.20
2019-03-15T21:26:30.930Z,9.20
2019-03-15T21:29:00.086Z,9.30
2019-03-15T21:31:29.759Z,9.30
2019-03-15T21:33:58.918Z,9.30
2019-03-15T21:36:28.338Z,9.30
2019-03-15T21:38:57.463Z,9.30
2019-03-15T21:41:27.836Z,9.30
2019-03-15T21:43:56.983Z,9.30
2019-03-15T21:46:26.354Z,9.30
2019-03-15T21:48:55.421Z,9.30
2019-03-15T21:51:27.578Z,9.30
2019-03-15T21:54:13.624Z,9.40
2019-03-15T21:56:43.037Z,9.40
2019-03-15T21:59:12.303Z,9.50
2019-03-15T22:07:27.709Z,9.60
2019-03-15T22:10:03.308Z,9.60
2019-03-15T22:12:32.461Z,9.70
2019-03-15T22:15:42.505Z,9.70
2019-03-15T22:18:28.287Z,9.70
2019-03-15T22:21:08.004Z,9.60
2019-03-15T22:27:38.272Z,9.60
2019-03-15T22:32:45.523Z,9.60
2019-03-15T22:35:22.320Z,9.70
2019-03-15T22:38:03.315Z,9.70
2019-03-15T22:46:43.925Z,9.80
2019-03-15T22:49:15.991Z,9.70
2019-03-15T22:51:45.151Z,9.70
2019-03-15T22:54:27.652Z,9.70
2019-03-15T22:57:28.159Z,9.70
2019-03-15T23:05:50.768Z,9.60
2019-03-15T23:08:20.312Z,9.60
2019-03-15T23:11:00.271Z,9.60
2019-03-15T23:14:04.356Z,9.60
2019-03-15T23:19:10.986Z,9.60
2019-03-15T23:21:40.317Z,9.60
2019-03-15T23:24:09.534Z,9.60
2019-03-15T23:26:50.721Z,9.80
2019-03-15T23:29:26.222Z,9.80
2019-03-15T23:31:55.339Z,9.70
2019-03-15T23:34:39.560Z,9.60
2019-03-15T23:37:06.356Z,9.60
2019-03-15T23:39:39.670Z,9.60
2019-03-15T23:42:08.861Z,9.60
2019-03-15T23:45:24.195Z,9.60
2019-03-15T23:48:26.549Z,9.60
2019-03-15T23:51:03.109Z,9.60
2019-03-15T23:53:32.534Z,9.60
2019-03-15T23:57:20.676Z,9.60
2019-03-15T23:59:25.719Z,9.60
